ETOU/WIE METAR and TAF weather

Enter ICAO airport designator
Station Type Date Time Source
ETOU METAR 2021/06/24 05:56 UTC NOAA

ETOU 240556Z AUTO 04005KT 4400 +RA BR OVC027 16/15 A3006 RMK AO2 VIS 4400V6000 RAB08 SLP178 P0009 60010 T01620151 10181 20162 55002 $


Station Type Date Time Source
ETOU Decoded METAR 2021/06/24 05:56 UTC NOAA

Wiesbaden, Germany (ETOU) 50-03N 008-20E
Jun 24, 2021 - 01:56 AM EDT / 2021.06.24 0556 UTC
Wind: from the NE (040 degrees) at 6 MPH (5 KT):0
Visibility: 2 mile(s):0
Sky conditions: overcast
Weather: heavy rain; mist
Precipitation last hour: 0.09 inches
Temperature: 61.2 F (16.2 C)
Dew Point: 59.2 F (15.1 C)
Relative Humidity: 93%
Pressure (altimeter): 30.06 in. Hg (1017 hPa)
Pressure tendency: 0.01 inches (0.2 hPa) lower than three hours ago
ob: ETOU 240556Z AUTO 04005KT 4400 +RA BR OVC027 16/15 A3006 RMK AO2 VIS 4400V6000 RAB08 SLP178 P0009 60010 T01620151 10181 20162 55002
cycle: 6

Station Type Date Time Source
ETOU TAF 2021/06/24 04:09 UTC NOAA

TAF TAF ETOU 240403Z 2404/2510 02006KT 9000 -SHRA BKN015 OVC030 QNH3006INS
BECMG 2409/2410 05009KT 9000 -SHRA VCTS OVC020CB QNH3008INS
TEMPO 2411/2417 05012G18KT 5000 -TSRA
BECMG 2417/2418 VRB06KT 9000 -SHRA BKN020 OVC030 QNH3007INS TX21/2415Z TN16/2404Z

Example: see airport list